Time;durP1;ratioP1;P1;durP2;ratioP2;P2;SDS_P1;SDS_P2;PMS_P1;PMS_P2;Temp;Humidity;BMP_temperature;BMP_pressure;BME280_temperature;BME280_humidity;BME280_pressure;Samples;Min_cycle;Max_cycle;Signal;HPM_P1;HPM_P2
2023/05/06 00:00:32;;;;;;;3.80;3.10;;;13.50;73.50;;;;;;5038193;28;20107;-69
2023/05/06 00:02:59;;;;;;;4.25;2.55;;;13.40;73.60;;;;;;5055895;28;20036;-69
2023/05/06 00:05:25;;;;;;;2.40;1.98;;;13.40;73.70;;;;;;5038055;28;20041;-69
2023/05/06 00:07:51;;;;;;;3.10;2.30;;;13.40;73.60;;;;;;5037848;28;20091;-69
2023/05/06 00:10:17;;;;;;;2.72;2.03;;;13.30;73.50;;;;;;5037786;28;20447;-69
2023/05/06 00:12:43;;;;;;;2.30;1.70;;;13.30;73.50;;;;;;5038161;28;20140;-69
2023/05/06 00:15:10;;;;;;;2.97;2.22;;;13.30;73.50;;;;;;5037795;28;20127;-69
2023/05/06 00:17:36;;;;;;;2.63;1.80;;;13.20;73.50;;;;;;5021335;28;20052;-69
2023/05/06 00:20:02;;;;;;;2.53;2.03;;;13.20;73.50;;;;;;5021510;28;20434;-69
2023/05/06 00:22:28;;;;;;;3.53;2.30;;;13.20;73.60;;;;;;5037692;28;20500;-69
2023/05/06 00:24:54;;;;;;;2.47;2.00;;;13.20;73.70;;;;;;5037430;28;20068;-69
2023/05/06 00:27:19;;;;;;;3.70;2.60;;;13.10;73.80;;;;;;5037390;28;20048;-69
2023/05/06 00:29:45;;;;;;;3.53;2.83;;;13.20;73.90;;;;;;5037431;28;20050;-69
2023/05/06 00:32:11;;;;;;;3.65;3.13;;;13.10;74.00;;;;;;5004594;28;20087;-69
2023/05/06 00:34:36;;;;;;;3.83;3.10;;;13.20;74.10;;;;;;5037433;28;20045;-69
2023/05/06 00:37:02;;;;;;;4.43;3.70;;;13.20;74.20;;;;;;5037529;28;20037;-69
2023/05/06 00:39:29;;;;;;;4.53;3.97;;;13.10;74.50;;;;;;5020126;28;20418;-69
2023/05/06 00:42:01;;;;;;;4.53;3.90;;;13.10;74.80;;;;;;5020746;28;20048;-69
2023/05/06 00:44:27;;;;;;;5.90;4.40;;;13.20;75.20;;;;;;5037506;28;20090;-69
2023/05/06 00:46:53;;;;;;;3.85;3.45;;;13.10;75.20;;;;;;5037218;28;20052;-69
2023/05/06 00:49:20;;;;;;;4.47;3.63;;;13.10;75.30;;;;;;5037166;28;20059;-69
2023/05/06 00:51:46;;;;;;;5.50;4.13;;;13.10;75.40;;;;;;5037272;28;20052;-76
2023/05/06 00:54:12;;;;;;;6.32;4.57;;;13.10;75.50;;;;;;5021095;28;20040;-76
2023/05/06 00:56:39;;;;;;;6.00;5.18;;;13.10;75.50;;;;;;5037261;28;20047;-75
2023/05/06 00:59:05;;;;;;;5.53;4.80;;;13.00;75.70;;;;;;5037417;28;20044;-75
2023/05/06 01:01:32;;;;;;;6.38;4.88;;;13.00;76.00;;;;;;5037256;28;20048;-75
2023/05/06 01:03:57;;;;;;;4.75;3.60;;;12.90;76.30;;;;;;5037152;28;20488;-75
2023/05/06 01:06:42;;;;;;;3.88;3.10;;;12.90;76.50;;;;;;5037447;28;20039;-75
2023/05/06 01:09:19;;;;;;;4.47;3.30;;;12.90;76.60;;;;;;5037117;28;20044;-75
2023/05/06 01:12:09;;;;;;;6.43;5.43;;;12.90;76.50;;;;;;5054898;28;20119;-75
2023/05/06 01:14:55;;;;;;;6.60;5.80;;;12.80;76.70;;;;;;5037389;28;20051;-75
2023/05/06 01:17:26;;;;;;;6.85;4.30;;;12.80;76.90;;;;;;5036441;28;20064;-76
2023/05/06 01:19:57;;;;;;;6.07;5.30;;;12.80;77.20;;;;;;5037030;28;20060;-75
2023/05/06 01:22:25;;;;;;;6.13;5.53;;;12.80;77.40;;;;;;5037057;28;20066;-75
2023/05/06 01:24:51;;;;;;;5.05;3.90;;;12.80;77.60;;;;;;5036737;28;20128;-75
2023/05/06 01:27:17;;;;;;;4.18;3.50;;;12.70;77.70;;;;;;5036676;28;20128;-75
2023/05/06 01:29:45;;;;;;;4.35;3.28;;;12.80;77.90;;;;;;5020241;28;20048;-75
2023/05/06 01:32:38;;;;;;;4.05;2.95;;;12.70;77.70;;;;;;5036575;28;20056;-75
2023/05/06 01:35:42;;;;;;;4.55;2.97;;;12.70;77.40;;;;;;5036582;28;20049;-75
2023/05/06 01:38:26;;;;;;;4.88;3.92;;;12.70;77.00;;;;;;4937984;29;20126;-75
2023/05/06 01:40:55;;;;;;;6.82;5.03;;;12.70;77.10;;;;;;5030540;28;20053;-75
2023/05/06 01:43:28;;;;;;;4.93;3.08;;;12.70;77.00;;;;;;5036444;28;20033;-75
2023/05/06 01:45:55;;;;;;;4.28;3.20;;;12.70;77.00;;;;;;5036383;28;20128;-75
2023/05/06 01:48:25;;;;;;;6.15;4.13;;;12.70;76.90;;;;;;5019691;28;20040;-75
2023/05/06 01:50:51;;;;;;;4.40;3.40;;;12.70;76.90;;;;;;5036207;28;20098;-75
2023/05/06 01:53:17;;;;;;;5.82;4.18;;;12.70;76.90;;;;;;5036149;28;20037;-75
2023/05/06 01:55:42;;;;;;;4.45;3.60;;;12.70;76.90;;;;;;5036064;28;20041;-75
2023/05/06 01:58:08;;;;;;;5.05;4.35;;;12.80;77.00;;;;;;5036065;28;20044;-69
2023/05/06 02:00:33;;;;;;;4.63;3.65;;;12.80;77.00;;;;;;5035991;28;20044;-69
2023/05/06 02:02:59;;;;;;;4.07;3.28;;;12.70;77.00;;;;;;5035707;28;20400;-69
2023/05/06 02:05:25;;;;;;;3.80;2.90;;;12.80;77.00;;;;;;5035955;28;20052;-69
2023/05/06 02:07:51;;;;;;;3.75;2.40;;;12.80;76.80;;;;;;5035770;28;20043;-69
2023/05/06 02:10:17;;;;;;;6.22;5.47;;;12.80;76.60;;;;;;5035453;28;20401;-69
2023/05/06 02:12:43;;;;;;;4.93;4.15;;;12.80;76.50;;;;;;5035590;28;20068;-69
2023/05/06 02:15:09;;;;;;;5.00;4.00;;;12.80;76.60;;;;;;5035524;28;20068;-69
2023/05/06 02:17:36;;;;;;;4.32;3.72;;;12.80;76.50;;;;;;5035630;28;20041;-69
2023/05/06 02:20:02;;;;;;;4.35;3.42;;;12.80;76.50;;;;;;5035752;28;20431;-69
2023/05/06 02:22:28;;;;;;;3.47;2.63;;;12.80;76.30;;;;;;5036000;28;20052;-69
2023/05/06 02:24:54;;;;;;;3.22;2.65;;;12.70;76.10;;;;;;5018875;28;20119;-69
2023/05/06 02:27:19;;;;;;;3.17;2.70;;;12.70;75.90;;;;;;5035523;28;20086;-69
2023/05/06 02:29:45;;;;;;;4.53;3.20;;;12.70;75.70;;;;;;5035324;28;20041;-69
2023/05/06 02:32:11;;;;;;;3.67;2.38;;;12.70;75.60;;;;;;5035411;28;20431;-69
2023/05/06 02:34:36;;;;;;;4.45;3.05;;;12.70;75.50;;;;;;5035223;28;20060;-69
2023/05/06 02:37:02;;;;;;;3.90;2.50;;;12.70;75.30;;;;;;5035304;28;20091;-69
2023/05/06 02:39:28;;;;;;;4.05;3.53;;;12.70;75.20;;;;;;5018690;28;20068;-69
2023/05/06 02:41:54;;;;;;;2.75;2.10;;;12.70;75.10;;;;;;5035287;28;20124;-69
2023/05/06 02:44:19;;;;;;;2.78;2.08;;;12.70;75.00;;;;;;5035070;28;20577;-69
2023/05/06 02:46:45;;;;;;;3.03;2.40;;;12.70;74.90;;;;;;5002464;28;20052;-69
2023/05/06 02:49:11;;;;;;;6.60;4.28;;;12.70;74.80;;;;;;5018542;28;20107;-69
2023/05/06 02:51:36;;;;;;;4.95;3.30;;;12.70;74.60;;;;;;5035115;28;20048;-69
2023/05/06 02:54:02;;;;;;;5.10;3.00;;;12.70;74.60;;;;;;5034950;28;20067;-69
2023/05/06 02:56:28;;;;;;;3.65;2.55;;;12.70;74.80;;;;;;5035154;28;20045;-69
2023/05/06 02:58:53;;;;;;;7.72;3.60;;;12.60;74.80;;;;;;5034927;28;20088;-69
2023/05/06 03:01:20;;;;;;;5.70;4.40;;;12.60;74.70;;;;;;5034463;28;20080;-69
2023/05/06 03:03:45;;;;;;;5.43;3.22;;;12.60;74.60;;;;;;5035002;28;20114;-69
2023/05/06 03:06:11;;;;;;;5.53;4.93;;;12.60;74.80;;;;;;5035204;28;20052;-69
2023/05/06 03:08:37;;;;;;;5.70;4.80;;;12.60;75.00;;;;;;5034626;28;20500;-69
2023/05/06 03:11:02;;;;;;;6.80;5.35;;;12.60;75.10;;;;;;5034784;28;20471;-69
2023/05/06 03:13:28;;;;;;;6.82;5.68;;;12.50;75.20;;;;;;5034769;28;20131;-69
2023/05/06 03:15:54;;;;;;;7.45;3.55;;;12.50;75.50;;;;;;5034729;28;20059;-69
2023/05/06 03:18:19;;;;;;;5.15;4.13;;;12.40;75.80;;;;;;5034866;28;20103;-69
2023/05/06 03:20:47;;;;;;;12.07;6.88;;;12.40;76.00;;;;;;5034872;28;20133;-69
2023/05/06 03:23:13;;;;;;;6.88;6.03;;;12.30;76.10;;;;;;5034691;28;20056;-69
2023/05/06 03:25:39;;;;;;;6.75;5.28;;;12.30;76.30;;;;;;5034556;28;20119;-69
2023/05/06 03:28:05;;;;;;;7.25;5.88;;;12.20;76.30;;;;;;5034578;28;20045;-69
2023/05/06 03:30:30;;;;;;;9.13;7.30;;;12.20;76.60;;;;;;5034836;28;20127;-69
2023/05/06 03:32:59;;;;;;;9.50;7.03;;;12.10;76.80;;;;;;5034421;28;20537;-69
2023/05/06 03:35:25;;;;;;;5.18;4.32;;;12.00;77.00;;;;;;5034845;28;20044;-75
2023/05/06 03:37:51;;;;;;;7.63;5.70;;;12.00;77.20;;;;;;5034864;28;20049;-75
2023/05/06 03:40:17;;;;;;;6.43;5.80;;;12.00;77.30;;;;;;5035071;28;20052;-75
2023/05/06 03:42:43;;;;;;;6.65;5.55;;;12.00;77.30;;;;;;5018600;28;20407;-75
2023/05/06 03:45:09;;;;;;;4.30;3.40;;;11.90;77.30;;;;;;5034764;28;20423;-74
2023/05/06 03:47:35;;;;;;;5.10;3.40;;;11.90;77.30;;;;;;5034621;28;20045;-74
2023/05/06 03:50:00;;;;;;;8.00;6.47;;;11.90;77.30;;;;;;5034858;28;20067;-74
2023/05/06 03:52:26;;;;;;;5.03;3.72;;;11.90;77.30;;;;;;5034877;28;20462;-75
2023/05/06 03:54:52;;;;;;;5.40;4.13;;;11.80;77.30;;;;;;5034516;28;20485;-75
2023/05/06 03:57:17;;;;;;;5.18;4.00;;;11.80;77.30;;;;;;5018571;28;20045;-75
2023/05/06 03:59:43;;;;;;;9.27;6.70;;;11.80;77.20;;;;;;5034611;28;20377;-75
2023/05/06 04:02:09;;;;;;;9.23;6.25;;;11.80;77.20;;;;;;5034632;28;20041;-75
2023/05/06 04:04:34;;;;;;;5.53;4.55;;;11.80;77.20;;;;;;5034512;28;20033;-75
2023/05/06 04:07:02;;;;;;;7.20;5.43;;;11.80;77.70;;;;;;5034834;28;20044;-75
2023/05/06 04:09:28;;;;;;;7.78;5.88;;;11.80;77.30;;;;;;5034155;28;20075;-75
2023/05/06 04:11:54;;;;;;;5.90;5.18;;;11.80;77.20;;;;;;5034708;28;20048;-75
2023/05/06 04:14:20;;;;;;;10.77;7.25;;;11.80;77.30;;;;;;5054444;28;20101;-75
2023/05/06 04:16:46;;;;;;;7.10;6.13;;;11.80;77.30;;;;;;5038400;28;20476;-75
2023/05/06 04:19:12;;;;;;;7.70;6.07;;;11.80;77.40;;;;;;5038277;28;20388;-75
2023/05/06 04:21:37;;;;;;;7.72;6.38;;;11.80;77.40;;;;;;5021504;28;20052;-75
2023/05/06 04:24:03;;;;;;;8.38;7.18;;;11.80;77.50;;;;;;5038007;28;20037;-75
2023/05/06 04:26:30;;;;;;;6.78;5.30;;;11.70;77.40;;;;;;5021487;28;20048;-75
2023/05/06 04:28:56;;;;;;;7.22;6.40;;;11.70;77.60;;;;;;5037668;28;20083;-75
2023/05/06 04:31:22;;;;;;;10.07;7.55;;;11.70;77.80;;;;;;5037501;28;20137;-69
2023/05/06 04:33:48;;;;;;;7.57;6.68;;;11.70;77.90;;;;;;5037463;28;20037;-69
2023/05/06 04:36:13;;;;;;;26.65;10.20;;;11.70;78.10;;;;;;5055304;28;20079;-69
2023/05/06 04:38:39;;;;;;;14.35;9.65;;;11.70;78.30;;;;;;5037359;28;20430;-69
2023/05/06 04:41:05;;;;;;;9.65;8.65;;;11.70;78.60;;;;;;5037567;28;20067;-69
2023/05/06 04:43:31;;;;;;;9.88;7.72;;;11.70;79.20;;;;;;5037564;28;20037;-75
2023/05/06 04:45:57;;;;;;;8.48;6.93;;;11.70;79.00;;;;;;5021267;28;20041;-75
2023/05/06 04:48:23;;;;;;;11.57;9.20;;;11.70;79.10;;;;;;5037397;28;20128;-75
2023/05/06 04:50:49;;;;;;;9.45;7.90;;;11.70;79.30;;;;;;5055373;28;20424;-75
2023/05/06 04:53:16;;;;;;;11.00;9.35;;;11.70;79.50;;;;;;5037237;28;20076;-75
2023/05/06 04:55:42;;;;;;;11.57;8.77;;;11.70;79.70;;;;;;5055023;28;20112;-75
2023/05/06 04:58:07;;;;;;;10.10;8.35;;;11.70;79.70;;;;;;5037312;28;20132;-75
2023/05/06 05:00:34;;;;;;;10.30;8.55;;;11.80;80.10;;;;;;5020767;28;20045;-75
2023/05/06 05:03:03;;;;;;;11.35;9.52;;;11.80;80.30;;;;;;5037333;28;20147;-75
2023/05/06 05:05:29;;;;;;;12.55;10.15;;;11.80;80.60;;;;;;5037340;28;20059;-75
2023/05/06 05:07:55;;;;;;;12.65;10.90;;;11.90;80.90;;;;;;5037509;28;20167;-75
2023/05/06 05:10:21;;;;;;;10.82;9.63;;;11.90;81.30;;;;;;5036742;28;20571;-75
2023/05/06 05:12:47;;;;;;;11.95;10.02;;;12.00;81.80;;;;;;5037179;28;20044;-75
2023/05/06 05:15:12;;;;;;;10.65;9.23;;;12.10;82.00;;;;;;5037155;28;20040;-75
2023/05/06 05:17:38;;;;;;;11.57;10.18;;;12.10;82.10;;;;;;5036741;28;20092;-75
2023/05/06 05:20:04;;;;;;;10.05;8.77;;;12.20;82.10;;;;;;5020504;28;20055;-75
2023/05/06 05:22:30;;;;;;;12.63;10.45;;;12.30;82.00;;;;;;5036679;28;20051;-75
2023/05/06 05:24:56;;;;;;;10.77;9.18;;;12.40;82.00;;;;;;5020176;28;20424;-74
2023/05/06 05:27:22;;;;;;;9.85;8.27;;;12.50;81.80;;;;;;5036617;28;20049;-74
2023/05/06 05:29:48;;;;;;;9.15;7.93;;;12.50;81.90;;;;;;5036613;28;20106;-75
2023/05/06 05:32:14;;;;;;;9.82;8.80;;;12.60;81.30;;;;;;5036602;28;20042;-74
2023/05/06 05:34:40;;;;;;;11.63;9.90;;;12.60;81.00;;;;;;5036457;28;20103;-75
2023/05/06 05:37:06;;;;;;;9.57;8.40;;;12.60;80.90;;;;;;5020139;28;20052;-73
2023/05/06 05:39:32;;;;;;;10.70;9.52;;;12.70;81.00;;;;;;5036577;28;20044;-74
2023/05/06 05:41:57;;;;;;;11.07;9.90;;;12.70;80.90;;;;;;5036349;28;20548;-74
2023/05/06 05:44:23;;;;;;;13.00;11.52;;;12.80;81.00;;;;;;5036275;28;20044;-74
2023/05/06 05:46:49;;;;;;;10.90;9.40;;;12.80;81.00;;;;;;5036656;28;20049;-74
2023/05/06 05:49:15;;;;;;;11.93;10.50;;;12.80;81.00;;;;;;5053951;28;20041;-74
2023/05/06 05:51:41;;;;;;;15.60;12.35;;;12.90;81.10;;;;;;5036488;28;20500;-76
2023/05/06 05:54:06;;;;;;;14.10;11.75;;;12.90;81.20;;;;;;5035789;28;20037;-75
2023/05/06 05:56:32;;;;;;;14.27;12.63;;;12.90;81.30;;;;;;5053865;28;20044;-75
2023/05/06 05:58:59;;;;;;;16.23;12.55;;;13.00;81.40;;;;;;5036009;28;20113;-73
2023/05/06 06:01:25;;;;;;;13.27;11.80;;;13.00;81.50;;;;;;5054058;28;20037;-74
2023/05/06 06:03:51;;;;;;;15.48;12.25;;;13.00;81.50;;;;;;5035926;28;20060;-74
2023/05/06 06:06:16;;;;;;;17.73;13.00;;;12.90;81.40;;;;;;5036346;28;20037;-76
2023/05/06 06:08:42;;;;;;;14.55;12.90;;;12.90;81.40;;;;;;5019480;28;20477;-76
2023/05/06 06:11:08;;;;;;;15.50;13.27;;;13.00;81.70;;;;;;5035701;28;20611;-74
2023/05/06 06:13:33;;;;;;;12.15;9.63;;;12.90;81.90;;;;;;5035640;28;20041;-74
2023/05/06 06:15:59;;;;;;;16.65;13.75;;;12.90;82.20;;;;;;5035997;28;20041;-75
2023/05/06 06:18:25;;;;;;;17.10;14.15;;;12.80;82.40;;;;;;5035623;28;20485;-74
2023/05/06 06:20:51;;;;;;;15.00;12.90;;;12.80;82.50;;;;;;5035622;28;20049;-75
2023/05/06 06:23:16;;;;;;;19.25;14.10;;;12.90;82.80;;;;;;5035633;28;20087;-75
2023/05/06 06:25:42;;;;;;;17.63;13.60;;;12.80;82.90;;;;;;5035361;28;20041;-75
2023/05/06 06:28:08;;;;;;;15.63;13.93;;;12.80;83.10;;;;;;5035159;28;20103;-74
2023/05/06 06:30:34;;;;;;;16.02;13.98;;;12.80;83.40;;;;;;5018752;28;20052;-74
2023/05/06 06:33:00;;;;;;;17.10;14.73;;;12.80;83.70;;;;;;5035639;28;20041;-75
2023/05/06 06:35:26;;;;;;;15.98;13.27;;;12.90;84.80;;;;;;5035227;28;20447;-75
2023/05/06 06:37:53;;;;;;;17.00;13.85;;;13.10;85.70;;;;;;5035296;28;20396;-75
2023/05/06 06:40:19;;;;;;;15.55;13.27;;;13.30;85.80;;;;;;5053129;28;20032;-75
2023/05/06 06:42:45;;;;;;;15.25;12.55;;;13.50;85.70;;;;;;5035613;28;20068;-75
2023/05/06 06:45:13;;;;;;;13.90;12.48;;;13.60;85.40;;;;;;5035332;28;20087;-75
2023/05/06 06:47:40;;;;;;;12.45;11.15;;;13.70;85.40;;;;;;5035255;28;20041;-74
2023/05/06 06:50:07;;;;;;;11.60;10.15;;;13.90;85.40;;;;;;5035251;28;20120;-74
2023/05/06 06:52:34;;;;;;;12.50;10.52;;;14.10;85.30;;;;;;5035230;28;20045;-74
2023/05/06 06:55:00;;;;;;;12.20;10.57;;;14.40;85.00;;;;;;5035289;28;20094;-74
2023/05/06 06:57:26;;;;;;;11.52;10.23;;;14.70;84.30;;;;;;5035086;28;20508;-75
2023/05/06 06:59:52;;;;;;;10.40;9.32;;;14.90;83.50;;;;;;5052956;28;20112;-74
2023/05/06 07:02:19;;;;;;;10.45;9.10;;;15.20;82.70;;;;;;5035131;28;20472;-76
2023/05/06 07:04:45;;;;;;;10.65;9.55;;;15.50;81.70;;;;;;5052956;28;20044;-75
2023/05/06 07:07:11;;;;;;;10.43;8.15;;;15.70;81.30;;;;;;5035152;28;20412;-74
2023/05/06 07:09:38;;;;;;;10.13;9.13;;;16.00;81.00;;;;;;5034754;28;20087;-74
2023/05/06 07:12:05;;;;;;;9.13;8.15;;;16.20;79.50;;;;;;5035011;28;20056;-75
2023/05/06 07:14:31;;;;;;;9.30;8.35;;;16.40;78.60;;;;;;5035158;28;20045;-75
2023/05/06 07:16:58;;;;;;;10.07;8.05;;;16.60;78.30;;;;;;5035010;28;20052;-74
2023/05/06 07:19:23;;;;;;;9.52;8.57;;;16.80;78.20;;;;;;5018591;28;20546;-75
2023/05/06 07:21:49;;;;;;;9.52;8.35;;;17.00;77.70;;;;;;5035466;28;20049;-75
2023/05/06 07:24:15;;;;;;;9.65;8.65;;;17.40;77.10;;;;;;5018304;28;20488;-75
2023/05/06 07:26:40;;;;;;;7.93;7.13;;;17.70;76.20;;;;;;5035092;28;20048;-75
2023/05/06 07:29:06;;;;;;;10.00;8.40;;;17.90;74.40;;;;;;5018409;28;20116;-75
2023/05/06 07:31:32;;;;;;;8.38;7.57;;;18.00;73.50;;;;;;5034842;28;20049;-75
2023/05/06 07:33:58;;;;;;;9.43;8.48;;;18.10;73.00;;;;;;5035065;28;20120;-75
2023/05/06 07:36:25;;;;;;;8.90;8.00;;;18.30;72.50;;;;;;5034844;28;20146;-75
2023/05/06 07:38:52;;;;;;;9.18;8.27;;;18.40;71.30;;;;;;5034675;28;20484;-75
2023/05/06 07:41:17;;;;;;;8.45;7.57;;;18.30;71.00;;;;;;5052517;28;20468;-75
2023/05/06 07:43:43;;;;;;;9.65;8.65;;;18.30;71.10;;;;;;5034964;28;20079;-74
2023/05/06 07:46:09;;;;;;;9.27;8.43;;;18.30;71.20;;;;;;5052574;28;20033;-74
2023/05/06 07:48:35;;;;;;;8.75;7.95;;;18.30;71.50;;;;;;5037547;28;20431;-74
2023/05/06 07:51:02;;;;;;;9.25;8.35;;;18.40;71.30;;;;;;5038210;28;20045;-69
2023/05/06 07:53:28;;;;;;;9.93;8.85;;;18.50;71.90;;;;;;5038075;28;20090;-69
2023/05/06 07:56:00;;;;;;;9.55;8.10;;;18.70;71.70;;;;;;5038190;28;20124;-69
2023/05/06 07:58:30;;;;;;;9.40;8.40;;;18.80;70.70;;;;;;5038049;28;20048;-69
2023/05/06 08:00:55;;;;;;;9.23;8.25;;;18.90;70.20;;;;;;5038342;28;20051;-69
2023/05/06 08:03:21;;;;;;;9.57;8.57;;;19.20;70.00;;;;;;5037969;28;20044;-68
2023/05/06 08:05:49;;;;;;;9.48;7.88;;;19.30;69.70;;;;;;5037842;28;20048;-69
2023/05/06 08:08:15;;;;;;;9.90;8.90;;;19.50;69.40;;;;;;5037883;28;20037;-69
2023/05/06 08:10:43;;;;;;;10.35;9.25;;;19.60;69.20;;;;;;5037938;28;20130;-75
2023/05/06 08:13:09;;;;;;;10.80;9.70;;;19.70;69.20;;;;;;5038100;28;20477;-75
2023/05/06 08:15:34;;;;;;;12.38;10.38;;;19.90;68.90;;;;;;5037877;28;20078;-75
2023/05/06 08:18:00;;;;;;;10.95;9.82;;;19.90;68.60;;;;;;5037765;28;20051;-74
2023/05/06 08:20:26;;;;;;;12.60;11.30;;;19.90;69.00;;;;;;5038070;28;20045;-75
2023/05/06 08:22:52;;;;;;;11.60;10.40;;;19.90;69.00;;;;;;5037968;28;20057;-75
2023/05/06 08:25:18;;;;;;;11.25;10.15;;;19.90;68.70;;;;;;5037697;28;20044;-75
2023/05/06 08:27:44;;;;;;;11.90;10.57;;;19.80;68.60;;;;;;5021284;28;20106;-75
2023/05/06 08:30:11;;;;;;;11.50;10.30;;;19.80;68.40;;;;;;5037724;28;20044;-75
2023/05/06 08:32:38;;;;;;;12.57;11.23;;;19.70;68.30;;;;;;5038054;28;20041;-75
2023/05/06 08:35:05;;;;;;;11.20;10.10;;;19.70;67.80;;;;;;5037663;28;20044;-76
2023/05/06 08:37:31;;;;;;;11.57;10.48;;;19.70;68.00;;;;;;5021342;28;20090;-75
2023/05/06 08:39:56;;;;;;;10.70;9.60;;;19.70;67.70;;;;;;5037463;28;20124;-74
2023/05/06 08:42:24;;;;;;;11.00;9.90;;;19.70;68.00;;;;;;5021226;28;20461;-74
2023/05/06 08:44:55;;;;;;;11.45;10.15;;;19.70;68.70;;;;;;5037747;28;20063;-74
2023/05/06 08:47:21;;;;;;;10.65;9.57;;;19.80;68.50;;;;;;5037526;28;20447;-74
2023/05/06 08:49:47;;;;;;;11.82;10.73;;;19.90;67.80;;;;;;5055146;28;20043;-74
2023/05/06 08:52:13;;;;;;;12.57;11.23;;;19.90;67.90;;;;;;5020941;28;20123;-74
2023/05/06 08:54:40;;;;;;;10.48;9.38;;;20.00;67.50;;;;;;5037177;28;20076;-74
2023/05/06 08:57:10;;;;;;;10.30;8.93;;;20.10;67.90;;;;;;5055015;28;20124;-74
2023/05/06 08:59:36;;;;;;;12.70;10.20;;;20.30;67.40;;;;;;5036573;28;20128;-75
2023/05/06 09:02:05;;;;;;;11.68;10.32;;;20.40;66.40;;;;;;5037531;28;20110;-74
2023/05/06 09:04:31;;;;;;;10.30;9.30;;;20.50;66.70;;;;;;5037303;28;20053;-74
2023/05/06 09:06:57;;;;;;;9.38;8.25;;;20.70;65.80;;;;;;5037264;28;20449;-74
2023/05/06 09:09:24;;;;;;;8.45;7.50;;;20.80;64.10;;;;;;5036959;28;20059;-74
2023/05/06 09:11:55;;;;;;;8.80;7.90;;;20.90;62.40;;;;;;5036702;28;20057;-74
2023/05/06 09:14:22;;;;;;;9.73;8.50;;;21.00;63.10;;;;;;5021164;28;20055;-74
2023/05/06 09:16:49;;;;;;;8.80;7.78;;;21.20;62.40;;;;;;5036919;28;20044;-74
2023/05/06 09:19:17;;;;;;;8.75;6.57;;;21.30;62.20;;;;;;5037122;28;20106;-74
2023/05/06 09:21:45;;;;;;;9.82;8.27;;;21.50;63.20;;;;;;5037009;28;20041;-73
2023/05/06 09:24:12;;;;;;;10.98;7.93;;;21.70;61.50;;;;;;5036926;28;20045;-74
2023/05/06 09:26:42;;;;;;;8.18;7.35;;;21.80;61.20;;;;;;5054559;28;20037;-74
2023/05/06 09:29:08;;;;;;;8.77;7.65;;;22.00;60.90;;;;;;5036486;28;20041;-74
2023/05/06 09:31:40;;;;;;;10.55;8.15;;;22.20;61.40;;;;;;5054469;28;20116;-75
2023/05/06 09:34:06;;;;;;;11.35;8.35;;;22.30;59.50;;;;;;5036649;28;20094;-74
2023/05/06 09:36:33;;;;;;;8.75;7.72;;;22.40;59.20;;;;;;5036495;28;20041;-74
2023/05/06 09:38:58;;;;;;;8.52;7.63;;;22.50;58.70;;;;;;5036451;28;20056;-75
2023/05/06 09:41:24;;;;;;;10.98;9.07;;;22.60;58.30;;;;;;5036382;28;20044;-74
2023/05/06 09:43:55;;;;;;;10.15;8.43;;;22.70;58.10;;;;;;5036392;28;20052;-75
2023/05/06 09:46:22;;;;;;;9.32;8.25;;;22.70;57.50;;;;;;5036306;28;20388;-75
2023/05/06 09:48:50;;;;;;;8.63;6.45;;;22.60;56.90;;;;;;5019705;28;20128;-74
2023/05/06 09:51:16;;;;;;;10.55;8.38;;;22.60;57.30;;;;;;5036185;28;20484;-75
2023/05/06 09:53:43;;;;;;;11.07;9.02;;;22.60;57.30;;;;;;5036047;28;20036;-74
2023/05/06 09:56:08;;;;;;;9.82;7.88;;;22.60;56.70;;;;;;5035905;28;20461;-74
2023/05/06 09:58:35;;;;;;;8.20;6.82;;;22.50;56.90;;;;;;5035824;28;20135;-74
2023/05/06 10:01:03;;;;;;;9.18;8.05;;;22.60;58.00;;;;;;5035876;28;20045;-73
2023/05/06 10:03:30;;;;;;;11.65;8.95;;;22.60;58.30;;;;;;5053753;28;20124;-74
2023/05/06 10:05:59;;;;;;;11.70;9.75;;;22.70;57.60;;;;;;5035815;28;20126;-74
2023/05/06 10:08:25;;;;;;;11.77;9.52;;;22.70;56.70;;;;;;5035750;28;20049;-74
2023/05/06 10:10:52;;;;;;;12.30;10.32;;;22.70;57.80;;;;;;5018348;28;20068;-74
2023/05/06 10:13:20;;;;;;;13.88;10.32;;;22.70;56.50;;;;;;5019483;28;20116;-75
2023/05/06 10:15:48;;;;;;;11.45;10.18;;;22.60;55.80;;;;;;5053584;28;20050;-75
2023/05/06 10:18:18;;;;;;;10.57;8.90;;;22.60;55.90;;;;;;5036125;28;20465;-75
2023/05/06 10:20:45;;;;;;;11.63;9.55;;;22.60;56.10;;;;;;5035680;28;20048;-75
2023/05/06 10:23:25;;;;;;;8.30;7.38;;;22.60;56.80;;;;;;5035566;28;20103;-75
2023/05/06 10:26:06;;;;;;;9.60;8.27;;;22.60;57.00;;;;;;5035554;28;20045;-75
2023/05/06 10:28:38;;;;;;;8.55;6.68;;;22.60;57.10;;;;;;5035485;28;20099;-75
2023/05/06 10:31:06;;;;;;;7.82;6.05;;;22.60;56.50;;;;;;5035768;28;20403;-75
2023/05/06 10:33:32;;;;;;;10.30;8.20;;;22.70;56.40;;;;;;5035430;28;20072;-75
2023/05/06 10:36:03;;;;;;;13.10;9.82;;;22.70;55.90;;;;;;5035372;28;20041;-75
2023/05/06 10:38:40;;;;;;;10.48;9.32;;;22.80;55.40;;;;;;5035447;28;20045;-75
2023/05/06 10:41:07;;;;;;;13.50;10.27;;;22.90;55.50;;;;;;5035312;28;20048;-75
2023/05/06 10:43:37;;;;;;;13.55;8.32;;;23.00;53.80;;;;;;5035273;28;20562;-73
2023/05/06 10:46:14;;;;;;;9.27;8.13;;;23.10;54.20;;;;;;5053060;28;20053;-74
2023/05/06 10:49:05;;;;;;;10.30;8.35;;;23.10;54.00;;;;;;5035173;28;20041;-74
2023/05/06 10:51:34;;;;;;;11.27;9.05;;;23.20;54.30;;;;;;5035224;28;20033;-74
2023/05/06 10:54:09;;;;;;;8.80;7.85;;;23.20;53.10;;;;;;5034686;28;20056;-74
2023/05/06 10:57:01;;;;;;;7.22;6.38;;;23.20;53.30;;;;;;5035006;28;20049;-74
2023/05/06 10:59:30;;;;;;;9.75;8.38;;;23.30;53.80;;;;;;5034823;28;20111;-74
2023/05/06 11:02:18;;;;;;;9.82;8.82;;;23.30;53.50;;;;;;5052898;28;20043;-74
2023/05/06 11:04:50;;;;;;;9.10;7.90;;;23.40;53.10;;;;;;5035293;28;20048;-74
2023/05/06 11:07:23;;;;;;;10.38;7.70;;;23.40;53.00;;;;;;5034957;28;20044;-68
2023/05/06 11:10:04;;;;;;;10.88;8.60;;;23.30;53.30;;;;;;5034649;28;20124;-69
2023/05/06 11:12:49;;;;;;;9.05;6.97;;;23.30;52.20;;;;;;5034670;28;20049;-68
2023/05/06 11:15:42;;;;;;;10.10;7.90;;;23.20;53.30;;;;;;5034881;28;20140;-68
2023/05/06 11:18:23;;;;;;;7.10;6.05;;;23.20;52.10;;;;;;5035130;28;20101;-68
2023/05/06 11:21:09;;;;;;;10.85;8.02;;;23.20;53.20;;;;;;5052579;28;20098;-68
2023/05/06 11:23:41;;;;;;;8.20;7.32;;;23.10;53.10;;;;;;5021032;28;20442;-68
2023/05/06 11:26:10;;;;;;;10.27;7.45;;;23.00;53.10;;;;;;5038599;28;20120;-69
2023/05/06 11:28:37;;;;;;;8.48;6.45;;;23.00;54.20;;;;;;5022409;28;20118;-68
2023/05/06 11:31:03;;;;;;;9.10;7.78;;;23.00;54.50;;;;;;5056608;28;20488;-68
2023/05/06 11:33:34;;;;;;;10.00;6.68;;;23.10;54.00;;;;;;5038573;28;20515;-68
2023/05/06 11:36:00;;;;;;;7.38;5.50;;;23.20;53.20;;;;;;5038573;28;20040;-68
2023/05/06 11:38:44;;;;;;;13.57;7.40;;;23.20;53.10;;;;;;5038750;28;20044;-68
2023/05/06 11:41:11;;;;;;;8.30;6.70;;;23.30;51.40;;;;;;5038535;28;20103;-75
2023/05/06 11:43:37;;;;;;;9.82;7.13;;;23.30;51.50;;;;;;5038648;28;20049;-74
2023/05/06 11:46:03;;;;;;;8.13;6.85;;;23.40;50.90;;;;;;5056390;28;20093;-74
2023/05/06 11:48:29;;;;;;;8.35;6.80;;;23.50;50.00;;;;;;5038387;28;20041;-74
2023/05/06 11:50:55;;;;;;;8.00;6.70;;;23.60;50.00;;;;;;5038389;28;20041;-74
2023/05/06 11:53:22;;;;;;;6.88;5.05;;;23.60;49.20;;;;;;5038386;28;20048;-74
2023/05/06 11:55:51;;;;;;;7.95;6.20;;;23.60;48.60;;;;;;5038555;28;20037;-74
2023/05/06 11:58:24;;;;;;;9.05;5.85;;;23.60;47.50;;;;;;5038532;28;20404;-74
2023/05/06 12:00:58;;;;;;;9.23;5.60;;;23.60;46.80;;;;;;5038541;28;20052;-73
2023/05/06 12:03:26;;;;;;;8.82;6.97;;;23.60;47.90;;;;;;5038428;28;20049;-74
2023/05/06 12:05:52;;;;;;;6.43;4.85;;;23.50;46.70;;;;;;5021628;28;20127;-74
2023/05/06 12:08:22;;;;;;;7.07;3.95;;;23.50;47.90;;;;;;5037843;28;20120;-74
2023/05/06 12:10:53;;;;;;;7.72;5.68;;;23.50;49.60;;;;;;5038105;28;20053;-75
2023/05/06 12:13:19;;;;;;;8.23;4.50;;;23.60;50.10;;;;;;5055868;28;20492;-74
2023/05/06 12:15:47;;;;;;;7.35;4.13;;;23.70;50.20;;;;;;5037877;28;20048;-74
2023/05/06 12:18:13;;;;;;;7.22;4.70;;;23.90;50.00;;;;;;5037907;28;20124;-74
2023/05/06 12:20:38;;;;;;;7.97;5.13;;;24.10;50.00;;;;;;5005342;28;20174;-75
2023/05/06 12:23:11;;;;;;;8.15;5.60;;;24.20;47.20;;;;;;5055782;28;20123;-74
2023/05/06 12:25:38;;;;;;;6.93;5.37;;;24.30;45.50;;;;;;5055493;28;20037;-74
2023/05/06 12:28:18;;;;;;;5.35;3.47;;;24.30;46.10;;;;;;5037685;28;20548;-73
2023/05/06 12:30:45;;;;;;;6.28;3.40;;;24.40;47.50;;;;;;5037612;28;20124;-74
2023/05/06 12:33:11;;;;;;;5.03;3.13;;;24.50;48.00;;;;;;5055655;28;20048;-73
2023/05/06 12:35:39;;;;;;;5.13;3.30;;;24.60;48.40;;;;;;5036875;28;20033;-74
2023/05/06 12:38:09;;;;;;;4.47;2.80;;;24.80;47.70;;;;;;5037655;28;20049;-74
2023/05/06 12:40:36;;;;;;;5.72;3.28;;;24.80;47.00;;;;;;5037708;28;20103;-74
2023/05/06 12:43:02;;;;;;;4.93;2.90;;;25.00;47.70;;;;;;5037908;28;20049;-74